Time;durP1;ratioP1;P1;durP2;ratioP2;P2;SDS_P1;SDS_P2;PMS_P1;PMS_P2;Temp;Humidity;BMP_temperature;BMP_pressure;BME280_temperature;BME280_humidity;BME280_pressure;Samples;Min_cycle;Max_cycle;Signal;HPM_P1;HPM_P2
2022/02/07 00:01:19;;;;;;;10.80;2.33;;;4.40;99.90;;;;;;5026882;28;20026;-43
2022/02/07 00:03:53;;;;;;;11.07;1.88;;;4.40;99.90;;;;;;5027580;28;20127;-43
2022/02/07 00:06:19;;;;;;;11.98;2.35;;;4.40;99.90;;;;;;5026655;28;20045;-43
2022/02/07 00:08:46;;;;;;;13.98;1.98;;;4.50;99.90;;;;;;5026640;28;20586;-43
2022/02/07 00:11:15;;;;;;;6.30;1.50;;;4.50;99.90;;;;;;5027091;28;20056;-44
2022/02/07 00:13:41;;;;;;;9.63;1.75;;;4.50;99.90;;;;;;5027453;28;20163;-43
2022/02/07 00:16:07;;;;;;;8.90;2.05;;;4.50;99.90;;;;;;5026543;28;20053;-42
2022/02/07 00:18:35;;;;;;;7.13;1.70;;;4.60;99.90;;;;;;5027553;28;20916;-42
2022/02/07 00:21:00;;;;;;;12.68;2.45;;;4.60;99.90;;;;;;5027496;28;20061;-43
2022/02/07 00:23:27;;;;;;;10.57;2.45;;;4.70;99.90;;;;;;5025661;28;20118;-43
2022/02/07 00:25:53;;;;;;;11.32;2.03;;;4.80;99.90;;;;;;5026779;28;20029;-43
2022/02/07 00:28:19;;;;;;;10.13;2.00;;;4.80;99.90;;;;;;5026696;28;20032;-43
2022/02/07 00:30:44;;;;;;;12.00;1.50;;;4.80;99.90;;;;;;5026214;28;20033;-44
2022/02/07 00:33:10;;;;;;;8.27;2.25;;;4.70;99.90;;;;;;5026778;28;20017;-44
2022/02/07 00:35:36;;;;;;;6.63;1.50;;;4.60;99.90;;;;;;5026049;28;20064;-42
2022/02/07 00:38:07;;;;;;;7.22;1.58;;;4.50;99.90;;;;;;5027195;28;20724;-42
2022/02/07 00:40:45;;;;;;;6.70;1.20;;;4.50;99.90;;;;;;5026178;28;20516;-43
2022/02/07 00:43:57;;;;;;;6.90;1.20;;;4.40;99.90;;;;;;5026033;28;20034;-42
2022/02/07 00:46:06;;;;;;;7.03;1.27;;;4.40;99.90;;;;;;5020560;28;20382;-43
2022/02/07 00:48:32;;;;;;;5.18;1.20;;;4.30;99.90;;;;;;5026067;28;20432;-44
2022/02/07 00:50:58;;;;;;;5.22;1.30;;;4.30;99.90;;;;;;5025774;28;20052;-43
2022/02/07 00:53:24;;;;;;;5.90;1.00;;;4.30;99.90;;;;;;5025723;28;20496;-43
2022/02/07 00:55:51;;;;;;;6.63;1.70;;;4.30;99.90;;;;;;5026788;28;20511;-44
2022/02/07 00:58:16;;;;;;;6.75;1.23;;;4.30;99.90;;;;;;5025320;28;20022;-42
2022/02/07 01:00:42;;;;;;;8.73;1.20;;;4.40;99.90;;;;;;5026122;28;20021;-43
2022/02/07 01:03:07;;;;;;;7.35;1.38;;;4.40;99.90;;;;;;5026250;28;20531;-44
2022/02/07 01:05:33;;;;;;;14.30;2.30;;;4.40;99.90;;;;;;5024967;28;20045;-43
2022/02/07 01:08:00;;;;;;;6.68;1.60;;;4.30;99.90;;;;;;5026631;28;20032;-43
2022/02/07 01:10:35;;;;;;;7.55;2.03;;;4.30;99.90;;;;;;5025536;28;20564;-43
2022/02/07 01:15:37;;;;;;;8.77;2.13;;;4.30;99.90;;;;;;5025431;28;20029;-43
2022/02/07 01:45:52;;;;;;;8.35;2.03;;;4.20;99.90;;;;;;4975716;28;20033;-43
2022/02/07 01:53:51;;;;;;;11.10;1.80;;;4.20;99.90;;;;;;5026276;28;20041;-42
2022/02/07 01:56:17;;;;;;;9.95;1.50;;;4.20;99.90;;;;;;5029354;28;20033;-43
2022/02/07 01:58:43;;;;;;;15.57;2.20;;;4.20;99.90;;;;;;5029880;28;20036;-43
2022/02/07 02:01:08;;;;;;;12.07;1.92;;;4.30;99.90;;;;;;5028469;28;20129;-41
2022/02/07 02:03:34;;;;;;;12.48;2.17;;;4.30;99.90;;;;;;5028927;28;20057;-43
2022/02/07 02:06:02;;;;;;;7.28;2.08;;;4.30;99.90;;;;;;5030137;28;20208;-45
2022/02/07 02:08:28;;;;;;;12.82;2.03;;;4.40;99.90;;;;;;5028027;28;20358;-44
2022/02/07 02:10:57;;;;;;;10.50;1.90;;;4.40;99.90;;;;;;5029702;28;20036;-43
2022/02/07 02:13:28;;;;;;;11.65;1.60;;;4.40;99.90;;;;;;5028287;28;20029;-43
2022/02/07 02:16:20;;;;;;;13.23;2.83;;;4.40;99.90;;;;;;5029405;28;20033;-44
2022/02/07 02:45:40;;;;;;;15.45;2.90;;;4.60;99.90;;;;;;5028203;28;20088;-43
2022/02/07 02:48:19;;;;;;;17.90;2.75;;;4.60;99.90;;;;;;5029196;28;20030;-43
2022/02/07 02:50:52;;;;;;;17.30;2.97;;;4.60;99.90;;;;;;5026728;28;20037;-43
2022/02/07 02:53:18;;;;;;;14.15;2.67;;;4.60;99.90;;;;;;5028461;28;20428;-43
2022/02/07 02:55:46;;;;;;;18.00;2.92;;;4.50;99.90;;;;;;5028419;28;20041;-43
2022/02/07 02:58:14;;;;;;;13.82;2.53;;;4.40;99.90;;;;;;5027944;28;20121;-43
2022/02/07 03:00:41;;;;;;;15.90;3.42;;;4.40;99.90;;;;;;5028809;28;20033;-43
2022/02/07 03:03:07;;;;;;;15.85;2.78;;;4.40;99.90;;;;;;5027955;28;20053;-44
2022/02/07 03:05:33;;;;;;;10.23;2.42;;;4.40;99.90;;;;;;5027417;28;20661;-44
2022/02/07 03:07:59;;;;;;;15.25;2.55;;;4.40;99.90;;;;;;5028636;28;20033;-44
2022/02/07 03:10:40;;;;;;;17.30;2.90;;;4.40;99.90;;;;;;5027188;28;20033;-43
2022/02/07 03:18:23;;;;;;;12.77;2.35;;;4.40;99.90;;;;;;5027915;28;20123;-43
2022/02/07 03:20:48;;;;;;;15.77;4.38;;;4.30;99.90;;;;;;5028023;28;20068;-43
2022/02/07 03:23:14;;;;;;;14.20;2.60;;;4.40;99.90;;;;;;5027697;28;20146;-41
2022/02/07 03:25:40;;;;;;;11.07;2.28;;;4.40;99.90;;;;;;5027351;28;20619;-43
2022/02/07 03:28:06;;;;;;;13.40;2.28;;;4.40;99.90;;;;;;5028028;28;20507;-44
2022/02/07 03:30:33;;;;;;;8.68;2.03;;;4.50;99.90;;;;;;5027438;28;20061;-43
2022/02/07 03:32:58;;;;;;;16.63;2.83;;;4.50;99.90;;;;;;5027403;28;20472;-44
2022/02/07 03:35:24;;;;;;;13.13;2.25;;;4.50;99.90;;;;;;5027250;28;20024;-43
2022/02/07 03:37:50;;;;;;;14.25;2.38;;;4.50;99.90;;;;;;5027784;28;20060;-43
2022/02/07 03:40:16;;;;;;;18.48;2.90;;;4.60;99.90;;;;;;5026955;28;20124;-43
2022/02/07 03:42:41;;;;;;;11.35;2.55;;;4.60;99.90;;;;;;5027958;28;20136;-43
2022/02/07 03:45:07;;;;;;;16.23;3.25;;;4.70;99.90;;;;;;5028143;28;20048;-43
2022/02/07 03:47:33;;;;;;;14.88;3.17;;;4.70;99.90;;;;;;5026757;28;20357;-43
2022/02/07 03:49:59;;;;;;;15.23;2.78;;;4.80;99.90;;;;;;5027597;28;20388;-43
2022/02/07 03:52:26;;;;;;;12.13;2.22;;;4.90;99.90;;;;;;5026225;28;20048;-44
2022/02/07 03:54:52;;;;;;;10.77;3.30;;;5.00;99.90;;;;;;5028028;28;20025;-43
2022/02/07 03:57:18;;;;;;;13.60;2.30;;;5.10;99.90;;;;;;5027173;28;20021;-43
2022/02/07 03:59:43;;;;;;;10.57;2.67;;;5.10;99.90;;;;;;5026921;28;20483;-44
2022/02/07 04:02:09;;;;;;;14.80;2.75;;;5.10;99.90;;;;;;5026579;28;20735;-43
2022/02/07 04:04:35;;;;;;;12.93;2.53;;;5.20;99.90;;;;;;5027125;28;20021;-43
2022/02/07 04:07:02;;;;;;;15.10;2.78;;;5.30;99.90;;;;;;5026483;28;20484;-43
2022/02/07 04:09:34;;;;;;;13.20;2.35;;;5.30;99.90;;;;;;5026683;28;20029;-42
2022/02/07 04:12:07;;;;;;;17.52;2.38;;;5.40;99.90;;;;;;5027322;28;20032;-43
2022/02/07 04:14:32;;;;;;;18.13;2.67;;;5.40;99.90;;;;;;5026060;28;20025;-43
2022/02/07 04:16:58;;;;;;;20.88;3.22;;;5.40;99.90;;;;;;5026387;28;20037;-43
2022/02/07 04:19:31;;;;;;;15.85;2.35;;;5.50;99.90;;;;;;5026459;28;20039;-43
2022/02/07 04:21:56;;;;;;;;;;;5.50;99.90;;;;;;5027053;28;20485;-42
2022/02/07 04:24:22;;;;;;;14.95;2.65;;;5.60;99.90;;;;;;5026267;28;19931;-43
2022/02/07 04:26:47;;;;;;;15.02;2.67;;;5.50;99.90;;;;;;5026900;28;20045;-43
2022/02/07 04:29:13;;;;;;;17.83;2.47;;;5.50;99.90;;;;;;5026307;28;20492;-43
2022/02/07 04:31:39;;;;;;;15.25;2.50;;;5.60;99.90;;;;;;5027150;28;20066;-43
2022/02/07 04:34:04;;;;;;;12.82;2.67;;;5.70;99.90;;;;;;5027063;28;20876;-42
2022/02/07 04:36:30;;;;;;;12.43;2.40;;;5.70;99.90;;;;;;5025532;28;20481;-43
2022/02/07 04:39:00;;;;;;;13.35;2.90;;;5.70;99.90;;;;;;5026970;28;20033;-43
2022/02/07 04:41:25;;;;;;;18.08;2.97;;;5.80;99.90;;;;;;5026151;28;20086;-43
2022/02/07 04:43:57;;;;;;;16.70;2.70;;;5.80;99.90;;;;;;5025890;28;20025;-44
2022/02/07 04:51:46;;;;;;;13.57;2.58;;;5.90;99.90;;;;;;5026403;28;20119;-43
2022/02/07 04:59:43;;;;;;;15.38;2.75;;;6.00;99.90;;;;;;5025863;28;20061;-43
2022/02/07 05:02:28;;;;;;;16.80;2.75;;;6.00;99.90;;;;;;5006129;28;20543;-43
2022/02/07 05:13:42;;;;;;;13.23;2.40;;;6.00;99.90;;;;;;5023524;28;20040;-44
2022/02/07 05:15:51;;;;;;;10.98;2.42;;;6.10;99.90;;;;;;5026302;28;20052;-43
2022/02/07 05:18:18;;;;;;;12.70;2.42;;;6.10;99.90;;;;;;5025187;28;20026;-43
2022/02/07 05:20:44;;;;;;;8.77;2.50;;;6.10;99.90;;;;;;5026018;28;20026;-44
2022/02/07 05:23:09;;;;;;;12.35;2.80;;;6.10;99.90;;;;;;5026382;28;20022;-44
2022/02/07 05:25:35;;;;;;;11.80;2.42;;;6.10;99.90;;;;;;5023916;28;20041;-43
2022/02/07 05:28:00;;;;;;;11.20;2.20;;;6.10;99.90;;;;;;5026347;28;20033;-42
2022/02/07 05:30:26;;;;;;;14.05;2.92;;;6.10;99.90;;;;;;5025280;28;20120;-43
2022/02/07 05:32:51;;;;;;;11.93;1.95;;;6.10;99.90;;;;;;5025422;28;20061;-43
2022/02/07 05:35:17;;;;;;;17.13;3.25;;;6.10;99.90;;;;;;5025670;28;20029;-43
2022/02/07 05:37:43;;;;;;;12.88;2.63;;;6.10;99.90;;;;;;5026117;28;20065;-44
2022/02/07 05:40:16;;;;;;;14.93;3.10;;;6.20;99.90;;;;;;5024458;28;20022;-43
2022/02/07 05:42:41;;;;;;;15.98;3.28;;;6.20;99.90;;;;;;5026335;28;20044;-43
2022/02/07 05:45:07;;;;;;;13.98;2.92;;;6.20;99.90;;;;;;5025271;28;20018;-44
2022/02/07 05:47:34;;;;;;;14.52;2.67;;;6.20;99.90;;;;;;5025780;28;20037;-43
2022/02/07 05:50:01;;;;;;;17.55;3.38;;;6.20;99.90;;;;;;5026538;28;20103;-43
2022/02/07 05:52:26;;;;;;;13.10;2.80;;;6.20;99.90;;;;;;5024763;28;20037;-42
2022/02/07 05:54:52;;;;;;;14.98;2.72;;;6.20;99.90;;;;;;5025923;28;20022;-43
2022/02/07 05:57:17;;;;;;;19.85;2.97;;;6.10;99.90;;;;;;5025657;28;20017;-43
2022/02/07 05:59:43;;;;;;;15.07;2.53;;;6.10;99.90;;;;;;5024919;28;20017;-42
2022/02/07 06:02:08;;;;;;;17.17;3.08;;;6.10;99.90;;;;;;5025439;28;20064;-43
2022/02/07 06:04:34;;;;;;;13.70;2.38;;;6.10;99.90;;;;;;5024987;28;20065;-43
2022/02/07 06:07:00;;;;;;;17.15;2.75;;;6.10;99.90;;;;;;5024458;28;20060;-44
2022/02/07 06:09:26;;;;;;;13.95;2.17;;;6.00;99.90;;;;;;5025070;28;20038;-43
2022/02/07 06:11:51;;;;;;;15.10;3.17;;;6.10;99.90;;;;;;5025453;28;20030;-42
2022/02/07 06:14:17;;;;;;;20.60;3.30;;;6.10;99.90;;;;;;5024079;28;20033;-43
2022/02/07 06:16:42;;;;;;;16.52;2.85;;;6.10;99.90;;;;;;5025619;28;20017;-44
2022/02/07 06:19:08;;;;;;;13.35;2.65;;;6.10;99.90;;;;;;5025523;28;20052;-43
2022/02/07 06:21:34;;;;;;;15.55;3.03;;;6.10;99.90;;;;;;5024555;28;20051;-43
2022/02/07 06:24:02;;;;;;;14.20;2.53;;;6.00;99.90;;;;;;5025917;28;20572;-43
2022/02/07 06:26:28;;;;;;;12.70;2.45;;;6.00;99.90;;;;;;5024592;28;20107;-43
2022/02/07 06:28:55;;;;;;;15.07;2.67;;;5.90;99.90;;;;;;5024822;28;20080;-43
2022/02/07 06:31:21;;;;;;;14.77;4.05;;;5.80;99.90;;;;;;5025444;28;20026;-43
2022/02/07 06:33:46;;;;;;;15.30;2.80;;;5.80;99.90;;;;;;5014550;28;20396;-43
2022/02/07 06:36:12;;;;;;;17.45;3.10;;;5.80;99.90;;;;;;5024280;28;20025;-44
2022/02/07 06:38:37;;;;;;;12.52;2.63;;;5.80;99.90;;;;;;5025146;28;20107;-43
2022/02/07 06:41:03;;;;;;;12.57;2.33;;;5.80;99.90;;;;;;5028586;28;20041;-44
2022/02/07 06:43:28;;;;;;;17.48;2.90;;;5.80;99.90;;;;;;5027499;28;20025;-44
2022/02/07 06:45:54;;;;;;;15.82;2.80;;;5.70;99.90;;;;;;5029216;28;20046;-45
2022/02/07 06:48:19;;;;;;;16.17;3.28;;;5.70;99.90;;;;;;5027765;28;20034;-43
2022/02/07 06:50:45;;;;;;;15.88;2.83;;;5.70;99.90;;;;;;5028666;28;20029;-43
2022/02/07 06:53:10;;;;;;;14.93;2.70;;;5.70;99.90;;;;;;5021160;28;20102;-44
2022/02/07 06:55:36;;;;;;;11.95;2.83;;;5.60;99.90;;;;;;5025839;28;20434;-43
2022/02/07 06:58:01;;;;;;;16.08;2.30;;;5.60;99.90;;;;;;5025950;28;20127;-43
2022/02/07 07:00:27;;;;;;;16.00;2.47;;;5.60;99.90;;;;;;5027268;28;20373;-43
2022/02/07 07:02:52;;;;;;;15.32;2.28;;;5.50;99.90;;;;;;5025947;28;20037;-43
2022/02/07 07:05:22;;;;;;;17.75;3.47;;;5.50;99.90;;;;;;5027177;28;20088;-43
2022/02/07 07:07:48;;;;;;;12.15;2.80;;;5.50;99.90;;;;;;5027193;28;20844;-43
2022/02/07 07:10:15;;;;;;;16.95;2.92;;;5.50;99.90;;;;;;5026631;28;20033;-44
2022/02/07 07:12:43;;;;;;;11.35;2.60;;;5.50;99.90;;;;;;5027633;28;20022;-44
2022/02/07 07:15:14;;;;;;;12.80;2.47;;;5.40;99.90;;;;;;5027670;28;20041;-43
2022/02/07 07:17:39;;;;;;;13.27;2.80;;;5.40;99.90;;;;;;5026816;28;20044;-42
2022/02/07 07:20:08;;;;;;;8.75;2.22;;;5.40;99.90;;;;;;5027697;28;20013;-42
2022/02/07 07:22:34;;;;;;;9.85;2.22;;;5.30;99.90;;;;;;5026876;28;20389;-43
2022/02/07 07:25:01;;;;;;;11.00;1.92;;;5.30;99.90;;;;;;5026542;28;20018;-42
2022/02/07 07:27:31;;;;;;;12.10;2.35;;;5.30;99.90;;;;;;5026754;28;20045;-43
2022/02/07 07:29:56;;;;;;;15.20;2.60;;;5.30;99.90;;;;;;5027210;28;20115;-42
2022/02/07 07:32:26;;;;;;;15.80;2.33;;;5.30;99.90;;;;;;5025874;28;20076;-42
2022/02/07 07:34:51;;;;;;;11.88;2.28;;;5.30;99.90;;;;;;5027712;28;20108;-43
2022/02/07 07:37:17;;;;;;;15.45;2.50;;;5.20;99.90;;;;;;5027593;28;20614;-43
2022/02/07 07:39:43;;;;;;;12.65;2.28;;;5.20;99.90;;;;;;5026659;28;20029;-43
2022/02/07 07:42:09;;;;;;;14.18;2.20;;;5.20;99.90;;;;;;5027463;28;20122;-44
2022/02/07 07:44:36;;;;;;;10.52;2.30;;;5.20;99.90;;;;;;5026233;28;20036;-43
2022/02/07 07:47:09;;;;;;;11.07;2.65;;;5.20;99.90;;;;;;5028127;28;20115;-42
2022/02/07 07:49:44;;;;;;;14.70;2.40;;;5.20;99.90;;;;;;5027238;28;20113;-43
2022/02/07 07:52:14;;;;;;;18.48;3.58;;;5.20;99.90;;;;;;5026614;28;20048;-45
2022/02/07 07:55:22;;;;;;;11.45;2.40;;;5.20;99.90;;;;;;5027050;28;20445;-43
2022/02/07 08:03:07;;;;;;;19.17;2.90;;;5.20;99.90;;;;;;5007856;28;20057;-43
2022/02/07 08:05:44;;;;;;;17.67;2.80;;;5.20;99.90;;;;;;5020908;28;20033;-43
2022/02/07 08:08:22;;;;;;;11.40;2.42;;;5.20;99.90;;;;;;5027260;28;20036;-44
2022/02/07 08:10:59;;;;;;;13.35;2.40;;;5.20;99.90;;;;;;5027793;28;20048;-44
2022/02/07 08:13:29;;;;;;;19.02;2.72;;;5.30;99.90;;;;;;5026263;28;20453;-42
2022/02/07 08:15:54;;;;;;;13.18;2.80;;;5.30;99.90;;;;;;5027573;28;20108;-43
2022/02/07 08:18:20;;;;;;;13.07;2.90;;;5.30;99.90;;;;;;5026680;28;20136;-44
2022/02/07 08:20:45;;;;;;;16.08;2.75;;;5.30;99.90;;;;;;5026053;28;20120;-43
2022/02/07 08:23:11;;;;;;;16.70;3.20;;;5.40;99.90;;;;;;5027320;28;20385;-44
2022/02/07 08:25:37;;;;;;;12.00;2.63;;;5.50;99.90;;;;;;5026545;28;20424;-44
2022/02/07 08:28:02;;;;;;;13.40;2.50;;;5.50;99.90;;;;;;5026671;28;20099;-43
2022/02/07 08:30:28;;;;;;;13.65;2.60;;;5.60;99.90;;;;;;5026350;28;20084;-43
2022/02/07 08:32:54;;;;;;;14.50;2.75;;;5.60;99.90;;;;;;5026795;28;20022;-43
2022/02/07 08:35:20;;;;;;;15.82;2.53;;;5.60;99.90;;;;;;5025543;28;20072;-43
2022/02/07 08:37:46;;;;;;;18.35;2.95;;;5.60;99.90;;;;;;5026890;28;20428;-43
2022/02/07 08:40:12;;;;;;;17.63;3.17;;;5.60;99.90;;;;;;5026862;28;20088;-44
2022/02/07 08:42:37;;;;;;;12.20;3.05;;;5.70;99.90;;;;;;5026223;28;20120;-43
2022/02/07 08:45:05;;;;;;;17.58;3.47;;;5.70;99.90;;;;;;5026372;28;20047;-43
2022/02/07 08:47:30;;;;;;;17.25;3.83;;;5.80;99.90;;;;;;5025659;28;20041;-43
2022/02/07 08:49:56;;;;;;;10.68;2.55;;;5.80;99.90;;;;;;5026410;28;20030;-44
2022/02/07 08:52:21;;;;;;;11.35;2.55;;;5.80;99.90;;;;;;5026004;28;20481;-44
2022/02/07 08:54:48;;;;;;;15.57;3.15;;;5.80;99.90;;;;;;5025718;28;20496;-43
2022/02/07 08:57:32;;;;;;;19.67;3.25;;;5.90;99.90;;;;;;5025615;28;20033;-43
2022/02/07 09:00:12;;;;;;;15.73;3.53;;;5.90;99.90;;;;;;5026904;28;20035;-43
2022/02/07 09:03:05;;;;;;;20.10;3.63;;;6.00;99.90;;;;;;5024811;28;20061;-43
2022/02/07 09:08:07;;;;;;;31.23;4.10;;;6.10;99.90;;;;;;5022666;28;20061;-43
2022/02/07 09:10:35;;;;;;;19.73;4.22;;;6.10;99.90;;;;;;5006141;28;20072;-43
2022/02/07 09:13:01;;;;;;;22.23;3.40;;;6.20;99.90;;;;;;5022187;28;20022;-43
2022/02/07 09:15:43;;;;;;;19.38;3.28;;;6.30;99.90;;;;;;5025845;28;20033;-43
2022/02/07 09:18:11;;;;;;;19.65;4.15;;;6.50;99.90;;;;;;5025720;28;20031;-44
2022/02/07 09:20:38;;;;;;;14.20;2.90;;;6.50;99.90;;;;;;5025770;28;20057;-44
2022/02/07 09:23:05;;;;;;;18.15;3.80;;;6.60;99.90;;;;;;5025107;28;20798;-43
2022/02/07 09:25:30;;;;;;;17.55;3.90;;;6.60;99.90;;;;;;5026176;28;20037;-43
2022/02/07 09:27:57;;;;;;;17.98;2.92;;;6.60;99.90;;;;;;5026014;28;20392;-44
2022/02/07 09:30:23;;;;;;;19.08;4.25;;;6.70;99.90;;;;;;5023942;28;20490;-44
2022/02/07 09:32:49;;;;;;;16.83;3.63;;;6.70;99.90;;;;;;5025850;28;20021;-42
2022/02/07 09:35:16;;;;;;;19.08;3.47;;;6.70;99.90;;;;;;5023529;28;20040;-43
2022/02/07 09:37:42;;;;;;;26.70;4.15;;;6.70;99.90;;;;;;5025201;28;20022;-43
2022/02/07 09:40:09;;;;;;;21.05;3.40;;;6.70;99.90;;;;;;5026033;28;20021;-42
2022/02/07 09:42:35;;;;;;;18.77;3.33;;;6.80;99.90;;;;;;5025528;28;20427;-42
2022/02/07 09:45:11;;;;;;;17.20;3.83;;;6.80;99.90;;;;;;5024797;28;20044;-43
2022/02/07 09:47:38;;;;;;;21.10;3.90;;;6.90;99.90;;;;;;5025416;28;20045;-43
2022/02/07 09:50:08;;;;;;;26.30;4.25;;;7.00;99.90;;;;;;5025859;28;20539;-43
2022/02/07 09:52:34;;;;;;;11.55;2.97;;;7.10;99.90;;;;;;5024746;28;20157;-42
2022/02/07 09:55:00;;;;;;;25.40;3.65;;;7.10;99.90;;;;;;5026207;28;20118;-43
2022/02/07 09:57:26;;;;;;;16.73;2.97;;;7.20;99.90;;;;;;5025635;28;20026;-42
2022/02/07 09:59:53;;;;;;;16.42;2.97;;;7.40;99.90;;;;;;5024993;28;20029;-42
2022/02/07 10:02:32;;;;;;;20.67;3.40;;;7.50;99.90;;;;;;5025977;28;20087;-42
2022/02/07 10:05:03;;;;;;;17.02;3.10;;;7.70;99.90;;;;;;5025800;28;20119;-43
2022/02/07 10:07:58;;;;;;;19.63;3.08;;;7.80;99.90;;;;;;5025236;28;20048;-43
2022/02/07 10:15:37;;;;;;;12.20;3.22;;;8.00;99.90;;;;;;5027962;28;20819;-43
2022/02/07 10:18:13;;;;;;;16.27;3.58;;;8.00;99.90;;;;;;5027874;28;20029;-43
2022/02/07 10:40:18;;;;;;;21.10;3.50;;;7.90;99.90;;;;;;5029187;28;20049;-42
2022/02/07 10:43:12;;;;;;;14.38;3.03;;;7.90;99.90;;;;;;5029656;28;20500;-42
2022/02/07 10:46:10;;;;;;;14.27;3.20;;;7.90;99.90;;;;;;5029198;28;20052;-43
2022/02/07 10:48:52;;;;;;;13.65;2.90;;;7.90;99.90;;;;;;5005299;28;20029;-43
2022/02/07 10:51:25;;;;;;;14.50;2.97;;;7.90;99.90;;;;;;5023169;28;20115;-43
2022/02/07 10:54:04;;;;;;;11.93;2.42;;;7.90;99.90;;;;;;5027589;28;20485;-43
2022/02/07 10:56:37;;;;;;;18.00;2.88;;;7.80;99.90;;;;;;5025217;28;20488;-44
2022/02/07 10:59:08;;;;;;;21.38;3.30;;;7.90;99.90;;;;;;5007909;28;20068;-43
2022/02/07 11:04:28;;;;;;;14.48;2.65;;;8.10;99.90;;;;;;5008725;28;20596;-43
2022/02/07 11:06:58;;;;;;;13.48;3.35;;;8.30;99.90;;;;;;5025283;28;20037;-44
2022/02/07 11:15:03;;;;;;;11.05;2.50;;;8.40;99.90;;;;;;5009109;28;20555;-42
2022/02/07 11:17:49;;;;;;;17.08;2.75;;;8.40;99.90;;;;;;5025892;28;20037;-44
2022/02/07 11:23:12;;;;;;;9.73;2.03;;;8.50;99.90;;;;;;5027008;28;20030;-45
2022/02/07 11:25:56;;;;;;;9.25;1.65;;;8.60;99.90;;;;;;5027834;28;20069;-43
2022/02/07 11:28:25;;;;;;;14.93;2.45;;;8.80;99.90;;;;;;5026103;28;20058;-42
2022/02/07 11:31:04;;;;;;;8.30;1.80;;;8.80;99.90;;;;;;5027328;28;20465;-43
2022/02/07 11:33:52;;;;;;;8.73;2.45;;;8.80;99.90;;;;;;5025578;28;20170;-43
2022/02/07 11:36:38;;;;;;;9.55;2.00;;;8.80;99.90;;;;;;5027946;28;20052;-44
2022/02/07 11:39:16;;;;;;;13.75;2.70;;;8.70;99.90;;;;;;5018230;28;20099;-43
2022/02/07 11:41:53;;;;;;;11.10;2.38;;;8.70;99.90;;;;;;5020300;28;20033;-45
2022/02/07 11:44:26;;;;;;;10.07;1.92;;;8.60;99.90;;;;;;5016838;28;20045;-43
2022/02/07 11:47:12;;;;;;;12.88;2.40;;;8.60;99.90;;;;;;5027109;28;20029;-43
2022/02/07 11:49:49;;;;;;;10.60;2.20;;;8.60;99.90;;;;;;5019026;28;20204;-44
2022/02/07 11:52:37;;;;;;;8.73;1.85;;;8.60;99.90;;;;;;5025651;28;20057;-43
2022/02/07 11:55:04;;;;;;;9.70;2.13;;;8.60;99.90;;;;;;5027678;28;20080;-43
2022/02/07 11:57:37;;;;;;;11.38;1.98;;;8.70;99.90;;;;;;5026686;28;20072;-43
2022/02/07 12:00:23;;;;;;;12.18;2.20;;;8.70;99.90;;;;;;5018349;28;20436;-42
2022/02/07 12:02:51;;;;;;;6.53;2.00;;;8.80;99.90;;;;;;5025620;28;20591;-42
2022/02/07 12:05:22;;;;;;;7.10;2.25;;;8.90;99.90;;;;;;5025506;28;20398;-42
2022/02/07 12:08:01;;;;;;;9.38;2.85;;;9.00;99.90;;;;;;5026525;28;20029;-44
2022/02/07 12:10:39;;;;;;;10.40;2.42;;;9.00;99.90;;;;;;5025878;28;20048;-43
2022/02/07 12:13:34;;;;;;;11.75;2.00;;;9.00;99.90;;;;;;5025637;28;20041;-42
2022/02/07 12:16:05;;;;;;;11.35;2.30;;;9.00;99.90;;;;;;5027066;28;20017;-43
2022/02/07 12:18:30;;;;;;;11.55;2.40;;;8.90;99.90;;;;;;5025382;28;20023;-43
2022/02/07 12:21:14;;;;;;;9.27;1.85;;;8.90;99.90;;;;;;5025955;28;20196;-43
2022/02/07 12:23:40;;;;;;;12.10;2.05;;;8.80;99.90;;;;;;5026335;28;20108;-43
2022/02/07 12:26:10;;;;;;;10.48;2.40;;;8.80;99.90;;;;;;5026451;28;20072;-43
2022/02/07 12:31:16;;;;;;;8.30;1.90;;;8.80;99.90;;;;;;5026547;28;20508;-42
2022/02/07 12:33:54;;;;;;;9.02;1.60;;;8.80;99.90;;;;;;5025254;28;20117;-43
2022/02/07 12:36:20;;;;;;;8.73;1.90;;;8.70;99.90;;;;;;5025532;28;20033;-43
2022/02/07 12:38:46;;;;;;;11.07;2.08;;;8.60;99.90;;;;;;5025952;28;20025;-44
2022/02/07 12:41:15;;;;;;;9.25;2.00;;;8.50;99.90;;;;;;5025401;28;20026;-43
2022/02/07 12:43:46;;;;;;;10.55;1.77;;;8.50;99.90;;;;;;5026629;28;20022;-43
2022/02/07 12:46:15;;;;;;;9.93;1.92;;;8.60;99.90;;;;;;5015039;28;20040;-43
2022/02/07 12:48:50;;;;;;;10.43;2.10;;;8.70;99.90;;;;;;5024925;28;20851;-43
2022/02/07 12:51:18;;;;;;;8.27;1.55;;;8.80;99.90;;;;;;5026047;28;20033;-44
2022/02/07 12:53:45;;;;;;;7.97;1.67;;;8.80;99.90;;;;;;5025997;28;20035;-42
2022/02/07 12:56:13;;;;;;;9.32;1.92;;;8.80;99.90;;;;;;5025528;28;20075;-44
2022/02/07 12:58:42;;;;;;;7.72;1.65;;;8.90;99.90;;;;;;5025909;28;20078;-42
2022/02/07 13:01:22;;;;;;;8.90;1.77;;;9.00;99.90;;;;;;5024249;28;20042;-42
2022/02/07 13:04:03;;;;;;;8.10;1.48;;;9.00;99.90;;;;;;5026127;28;20128;-43
2022/02/07 13:06:35;;;;;;;6.70;1.40;;;8.90;99.90;;;;;;5021964;28;20047;-43
2022/02/07 13:09:16;;;;;;;8.15;1.83;;;8.90;99.90;;;;;;5025266;28;20033;-44
2022/02/07 13:11:48;;;;;;;6.97;1.58;;;8.80;99.90;;;;;;5022331;28;20017;-43
2022/02/07 13:14:18;;;;;;;7.40;1.80;;;8.70;99.90;;;;;;5025171;28;20499;-43
2022/02/07 13:16:45;;;;;;;9.80;1.70;;;8.70;99.90;;;;;;5025391;28;20260;-44
2022/02/07 13:19:21;;;;;;;9.55;1.88;;;8.60;99.90;;;;;;5025638;28;20035;-43
2022/02/07 13:21:49;;;;;;;10.73;1.70;;;8.50;99.90;;;;;;5025703;28;20095;-43
2022/02/07 13:24:25;;;;;;;5.05;1.50;;;8.60;99.90;;;;;;5024839;28;20381;-42
2022/02/07 13:26:57;;;;;;;8.38;1.70;;;8.60;99.90;;;;;;5025753;28;20492;-43
2022/02/07 13:29:28;;;;;;;7.22;1.50;;;8.70;99.90;;;;;;5024532;28;20733;-42
2022/02/07 13:31:57;;;;;;;11.02;2.17;;;8.60;99.90;;;;;;5025260;28;20030;-43
2022/02/07 13:34:24;;;;;;;6.63;1.77;;;8.60;99.90;;;;;;5025357;28;20032;-43
2022/02/07 13:36:52;;;;;;;9.07;1.80;;;8.60;99.90;;;;;;5024493;28;20044;-41
2022/02/07 13:39:20;;;;;;;9.07;1.77;;;8.70;99.90;;;;;;5005387;28;20469;-43
2022/02/07 13:42:04;;;;;;;6.63;1.63;;;8.60;99.90;;;;;;5020112;28;20032;-43
2022/02/07 13:44:30;;;;;;;8.35;1.85;;;8.50;99.90;;;;;;5004686;28;20046;-44
2022/02/07 13:47:03;;;;;;;11.32;1.90;;;8.50;99.90;;;;;;5019873;28;20041;-44
2022/02/07 13:49:30;;;;;;;6.97;1.77;;;8.60;99.90;;;;;;5026368;28;20452;-44
2022/02/07 13:51:56;;;;;;;9.23;1.50;;;8.70;99.90;;;;;;5028745;28;20060;-44
2022/02/07 13:54:30;;;;;;;8.43;1.95;;;8.70;99.90;;;;;;5029084;28;20053;-43
2022/02/07 13:56:59;;;;;;;10.32;1.90;;;8.80;99.90;;;;;;5029387;28;20029;-42
2022/02/07 13:59:33;;;;;;;9.50;2.83;;;8.80;99.90;;;;;;5028414;28;20030;-42
2022/02/07 14:02:00;;;;;;;8.73;1.80;;;8.80;99.90;;;;;;5028510;28;20579;-43
2022/02/07 14:04:27;;;;;;;6.85;1.83;;;8.80;99.90;;;;;;5027774;28;20045;-43
2022/02/07 14:07:10;;;;;;;5.97;1.52;;;8.80;99.90;;;;;;5029145;28;20053;-43
2022/02/07 14:09:38;;;;;;;8.85;1.45;;;8.60;99.90;;;;;;5028529;28;20443;-43
2022/02/07 14:12:05;;;;;;;8.60;1.70;;;8.60;99.90;;;;;;5027835;28;20810;-43
2022/02/07 14:14:31;;;;;;;5.68;2.42;;;8.50;99.90;;;;;;5028153;28;20029;-43
2022/02/07 14:16:58;;;;;;;8.85;1.85;;;8.40;99.90;;;;;;5027891;28;20037;-43
2022/02/07 14:19:59;;;;;;;5.18;1.50;;;8.40;99.90;;;;;;5027477;28;20083;-43
2022/02/07 14:22:25;;;;;;;8.98;1.95;;;8.50;99.90;;;;;;5014185;28;20480;-43
2022/02/07 14:24:50;;;;;;;5.90;1.65;;;8.50;99.90;;;;;;5029045;28;20083;-43
2022/02/07 14:27:16;;;;;;;5.53;1.17;;;8.60;99.90;;;;;;5027540;28;20129;-43
2022/02/07 14:29:41;;;;;;;5.10;1.52;;;8.60;99.90;;;;;;5028665;28;20071;-43
2022/02/07 14:32:07;;;;;;;8.15;1.50;;;8.60;99.90;;;;;;5028635;28;20037;-42
2022/02/07 14:34:32;;;;;;;3.60;1.52;;;8.60;99.90;;;;;;5027729;28;20109;-43
2022/02/07 14:36:58;;;;;;;7.53;1.40;;;8.60;99.90;;;;;;5029177;28;20033;-46
2022/02/07 14:39:23;;;;;;;10.27;1.60;;;8.60;99.90;;;;;;5026188;28;20431;-43
2022/02/07 14:41:51;;;;;;;11.02;1.98;;;8.60;99.90;;;;;;5028386;28;20031;-43
2022/02/07 14:44:26;;;;;;;6.85;1.38;;;8.60;99.90;;;;;;5027856;28;20087;-43
2022/02/07 14:47:02;;;;;;;6.22;1.80;;;8.60;99.90;;;;;;5028289;28;20048;-43
2022/02/07 14:49:29;;;;;;;7.82;1.83;;;8.60;99.90;;;;;;5027447;28;20048;-43
2022/02/07 14:51:55;;;;;;;7.07;1.40;;;8.80;99.90;;;;;;5028534;28;20041;-44
2022/02/07 14:54:20;;;;;;;7.88;1.77;;;8.80;99.90;;;;;;5026548;28;20030;-43
2022/02/07 14:56:46;;;;;;;6.13;1.23;;;8.80;99.90;;;;;;5027641;28;20032;-43
2022/02/07 14:59:16;;;;;;;6.78;1.63;;;8.80;99.90;;;;;;5027849;28;20035;-42
2022/02/07 15:01:41;;;;;;;8.63;2.13;;;8.80;99.90;;;;;;5026788;28;20148;-42
2022/02/07 15:04:07;;;;;;;3.42;1.08;;;8.80;99.90;;;;;;5027813;28;20497;-43
2022/02/07 15:06:32;;;;;;;5.25;1.33;;;8.70;99.90;;;;;;5027264;28;20057;-44
2022/02/07 15:08:58;;;;;;;7.38;2.00;;;8.70;99.90;;;;;;5027468;28;20033;-43
2022/02/07 15:11:24;;;;;;;6.43;1.45;;;8.60;99.90;;;;;;5027081;28;20033;-43
2022/02/07 15:13:50;;;;;;;10.50;1.40;;;8.60;99.90;;;;;;5027721;28;20022;-43
2022/02/07 15:16:15;;;;;;;5.25;1.10;;;8.50;99.90;;;;;;5027266;28;20034;-44